Time;durP1;ratioP1;P1;durP2;ratioP2;P2;SDS_P1;SDS_P2;PMS_P1;PMS_P2;Temp;Humidity;BMP_temperature;BMP_pressure;BME280_temperature;BME280_humidity;BME280_pressure;Samples;Min_cycle;Max_cycle;Signal;HPM_P1;HPM_P2
2021/11/22 00:00:18;;;;;;;0.60;0.60;;;;;;;9.47;68.70;99961.86;101226;1318;106559;-77
2021/11/22 00:03:06;;;;;;;0.50;0.40;;;;;;;9.54;68.46;99967.33;97565;1319;5024600;-77
2021/11/22 00:05:34;;;;;;;0.50;0.50;;;;;;;9.57;68.43;99973.45;100991;1316;95401;-77
2021/11/22 00:08:02;;;;;;;0.50;0.40;;;;;;;9.50;68.36;99970.98;100954;1323;138085;-76
2021/11/22 00:10:30;;;;;;;0.50;0.50;;;;;;;9.46;68.63;99975.52;101161;1322;108221;-77
2021/11/22 00:12:58;;;;;;;0.50;0.50;;;;;;;9.55;68.42;99975.09;101212;1317;109835;-76
2021/11/22 00:15:26;;;;;;;0.50;0.50;;;;;;;9.60;68.26;99973.52;101147;1318;138766;-77
2021/11/22 00:17:54;;;;;;;0.50;0.50;;;;;;;9.61;68.04;99972.44;101232;1324;96169;-76
2021/11/22 00:20:23;;;;;;;0.50;0.50;;;;;;;9.60;68.03;99974.23;101149;1318;139344;-76
2021/11/22 00:22:51;;;;;;;0.50;0.50;;;;;;;9.65;68.06;99977.83;101192;1318;109799;-76
2021/11/22 00:25:20;;;;;;;0.50;0.40;;;;;;;9.67;68.03;99976.70;101287;1318;95311;-75
2021/11/22 00:27:49;;;;;;;0.40;0.40;;;;;;;9.66;67.77;99981.70;101079;1321;138387;-76
2021/11/22 00:30:26;;;;;;;0.50;0.50;;;;;;;9.64;67.75;99984.05;101201;1318;107898;-76
2021/11/22 00:33:08;;;;;;;0.50;0.50;;;;;;;9.61;67.92;99983.97;101059;1319;138780;-77
2021/11/22 00:35:36;;;;;;;0.50;0.50;;;;;;;9.61;67.60;99987.86;101247;1319;95769;-77
2021/11/22 00:38:06;;;;;;;0.50;0.50;;;;;;;9.60;67.72;99989.48;100982;1322;139264;-77
2021/11/22 00:40:36;;;;;;;0.50;0.50;;;;;;;9.63;67.75;99990.99;101318;1319;107957;-76
2021/11/22 00:43:04;;;;;;;0.50;0.50;;;;;;;9.69;67.50;99994.38;101176;1322;109991;-76
2021/11/22 00:45:33;;;;;;;0.50;0.50;;;;;;;9.73;67.43;99993.54;101085;1318;138496;-77
2021/11/22 00:48:01;;;;;;;0.50;0.50;;;;;;;9.76;67.33;99995.04;101200;1320;95265;-76
2021/11/22 00:50:30;;;;;;;0.50;0.50;;;;;;;9.79;67.09;99998.87;100994;1320;139315;-76
2021/11/22 00:52:58;;;;;;;0.50;0.50;;;;;;;9.79;67.08;99999.56;101312;1318;110574;-76
2021/11/22 00:55:26;;;;;;;0.50;0.50;;;;;;;9.73;66.94;100000.83;101155;1319;139758;-76
2021/11/22 00:57:54;;;;;;;0.50;0.50;;;;;;;9.74;67.00;100005.20;101219;1318;95311;-77
2021/11/22 01:00:22;;;;;;;0.40;0.40;;;;;;;9.79;66.91;100005.79;101220;1318;108821;-76
2021/11/22 01:02:50;;;;;;;0.50;0.40;;;;;;;9.76;66.78;100008.33;101067;1324;138022;-76
2021/11/22 01:05:18;;;;;;;0.50;0.50;;;;;;;9.65;66.73;100010.96;101243;1320;96287;-77
2021/11/22 01:07:46;;;;;;;0.50;0.40;;;;;;;9.61;67.09;100012.88;100949;1321;139955;-76
2021/11/22 01:10:15;;;;;;;0.50;0.40;;;;;;;9.68;66.74;100015.13;101124;1319;107878;-77
2021/11/22 01:12:44;;;;;;;0.40;0.40;;;;;;;9.69;66.77;100016.00;101379;1318;109419;-75
2021/11/22 01:15:14;;;;;;;0.50;0.40;;;;;;;9.70;66.60;100018.96;101158;1318;137935;-76
2021/11/22 01:17:42;;;;;;;0.50;0.50;;;;;;;9.71;66.81;100023.02;101210;1320;95856;-77
2021/11/22 01:20:14;;;;;;;0.50;0.40;;;;;;;9.75;66.80;100026.65;101191;1324;138582;-76
2021/11/22 01:22:43;;;;;;;0.50;0.40;;;;;;;9.76;66.71;100027.32;101426;1318;108923;-76
2021/11/22 01:25:12;;;;;;;0.50;0.50;;;;;;;9.77;66.61;100032.23;101384;1318;95682;-77
2021/11/22 01:27:47;;;;;;;0.50;0.50;;;;;;;9.82;66.57;100034.23;101058;1318;138917;-77
2021/11/22 01:30:16;;;;;;;0.50;0.40;;;;;;;9.84;66.53;100033.63;101168;1315;107874;-76
2021/11/22 01:32:44;;;;;;;0.50;0.50;;;;;;;9.83;66.51;100038.80;101057;1318;138625;-76
2021/11/22 01:35:13;;;;;;;0.50;0.40;;;;;;;9.85;66.59;100042.48;101424;1316;96177;-76
2021/11/22 01:37:42;;;;;;;0.50;0.50;;;;;;;9.87;66.39;100042.97;101120;1319;138325;-77
2021/11/22 01:40:12;;;;;;;0.40;0.40;;;;;;;9.87;66.40;100041.55;101152;1319;107871;-77
2021/11/22 01:42:41;;;;;;;0.40;0.40;;;;;;;9.90;66.36;100041.63;101303;1318;108845;-76
2021/11/22 01:45:12;;;;;;;0.50;0.40;;;;;;;9.88;66.29;100042.21;101255;1321;137519;-77
2021/11/22 01:47:41;;;;;;;0.50;0.50;;;;;;;9.84;66.25;100049.06;101132;1321;96213;-76
2021/11/22 01:50:12;;;;;;;0.50;0.50;;;;;;;9.78;66.49;100049.08;101055;1319;139629;-76
2021/11/22 01:52:41;;;;;;;0.50;0.40;;;;;;;9.77;66.48;100053.86;101259;1319;109896;-77
2021/11/22 01:55:12;;;;;;;0.50;0.40;;;;;;;9.80;66.43;100060.35;101272;1320;95291;-76
2021/11/22 01:57:42;;;;;;;0.50;0.50;;;;;;;9.79;66.53;100055.61;101090;1318;139017;-76
2021/11/22 02:00:17;;;;;;;0.50;0.50;;;;;;;9.75;66.48;100051.96;101126;1320;108899;-76
2021/11/22 02:02:46;;;;;;;0.50;0.40;;;;;;;9.78;66.57;100051.02;101117;1316;141128;-77
2021/11/22 02:05:14;;;;;;;0.50;0.40;;;;;;;9.84;66.26;100050.84;101175;1317;95220;-76
2021/11/22 02:07:42;;;;;;;0.50;0.50;;;;;;;9.77;66.25;100054.77;101058;1318;139639;-77
2021/11/22 02:10:10;;;;;;;0.50;0.50;;;;;;;9.67;66.39;100058.61;101151;1318;108995;-76
2021/11/22 02:12:39;;;;;;;0.50;0.50;;;;;;;9.68;66.59;100065.67;101170;1319;108766;-77
2021/11/22 02:15:09;;;;;;;0.50;0.40;;;;;;;9.76;66.43;100065.81;101061;1319;140523;-76
2021/11/22 02:17:39;;;;;;;0.40;0.40;;;;;;;9.81;66.34;100070.44;101222;1318;96956;-76
2021/11/22 02:20:11;;;;;;;0.50;0.50;;;;;;;9.78;66.25;100071.23;101131;1318;139934;-76
2021/11/22 02:22:39;;;;;;;0.50;0.40;;;;;;;9.75;66.33;100072.90;101259;1318;109862;-76
2021/11/22 02:25:09;;;;;;;0.50;0.40;;;;;;;9.76;66.25;100073.42;100949;1319;95973;-77
2021/11/22 02:27:38;;;;;;;0.50;0.50;;;;;;;9.66;66.16;100072.45;101322;1313;139220;-75
2021/11/22 02:30:08;;;;;;;0.50;0.50;;;;;;;9.52;66.57;100075.13;101227;1318;108983;-77
2021/11/22 02:32:38;;;;;;;0.50;0.50;;;;;;;9.56;66.73;100073.27;101137;1318;138590;-75
2021/11/22 02:35:10;;;;;;;0.50;0.50;;;;;;;9.69;66.70;100076.80;101214;1318;95640;-77
2021/11/22 02:37:38;;;;;;;0.50;0.40;;;;;;;9.74;66.23;100076.14;101082;1318;138306;-76
2021/11/22 02:40:06;;;;;;;0.50;0.40;;;;;;;9.70;66.33;100076.95;101248;1318;108969;-76
2021/11/22 02:42:40;;;;;;;0.50;0.50;;;;;;;9.70;66.32;100079.42;101215;1318;108936;-76
2021/11/22 02:45:10;;;;;;;0.50;0.50;;;;;;;9.75;66.27;100083.56;101225;1318;138596;-77
2021/11/22 02:47:38;;;;;;;0.50;0.40;;;;;;;9.79;66.11;100083.60;100989;1319;95357;-76
2021/11/22 02:50:08;;;;;;;0.50;0.50;;;;;;;9.80;66.02;100092.27;100827;1321;138102;-77
2021/11/22 02:52:36;;;;;;;0.50;0.50;;;;;;;9.83;65.97;100093.95;101250;1318;110044;-76
2021/11/22 02:55:06;;;;;;;0.50;0.40;;;;;;;9.84;65.92;100096.42;101097;1326;95314;-76
2021/11/22 02:57:34;;;;;;;0.50;0.40;;;;;;;9.80;65.83;100091.92;100957;1320;139213;-76
2021/11/22 03:00:05;;;;;;;0.40;0.40;;;;;;;9.56;66.01;100091.33;101139;1319;108008;-76
2021/11/22 03:02:33;;;;;;;0.50;0.40;;;;;;;9.37;66.46;100091.48;101086;1318;139549;-77
2021/11/22 03:05:01;;;;;;;0.50;0.50;;;;;;;9.39;66.92;100096.55;101285;1320;95291;-76
2021/11/22 03:07:29;;;;;;;0.50;0.50;;;;;;;9.53;66.77;100100.99;101105;1318;139091;-77
2021/11/22 03:09:57;;;;;;;0.50;0.50;;;;;;;9.63;66.54;100100.73;101246;1318;108880;-76
2021/11/22 03:12:25;;;;;;;0.50;0.50;;;;;;;9.69;66.42;100102.33;101146;1321;109757;-76
2021/11/22 03:14:53;;;;;;;0.50;0.50;;;;;;;9.69;65.98;100114.20;101135;1318;138923;-78
2021/11/22 03:17:20;;;;;;;0.50;0.40;;;;;;;9.54;66.17;100122.21;101305;1320;96473;-77
2021/11/22 03:19:52;;;;;;;0.50;0.40;;;;;;;9.41;66.73;100118.14;101499;1321;138830;-75
2021/11/22 03:22:20;;;;;;;0.40;0.40;;;;;;;9.35;66.68;100123.59;101258;1318;109535;-76
2021/11/22 03:24:47;;;;;;;0.50;0.40;;;;;;;9.17;67.30;100131.14;101242;1317;95704;-77
2021/11/22 03:27:15;;;;;;;0.50;0.50;;;;;;;9.12;67.41;100134.09;101081;1317;138921;-76
2021/11/22 03:29:43;;;;;;;0.50;0.50;;;;;;;9.13;67.59;100140.10;101177;1318;109008;-76
2021/11/22 03:32:11;;;;;;;0.50;0.50;;;;;;;9.08;67.60;100139.52;101111;1318;139341;-76
2021/11/22 03:34:39;;;;;;;0.50;0.50;;;;;;;9.12;67.68;100141.72;101202;1320;95291;-77
2021/11/22 03:37:08;;;;;;;0.50;0.50;;;;;;;9.14;67.65;100145.91;101177;1318;95279;-77
2021/11/22 03:39:36;;;;;;;0.50;0.50;;;;;;;9.19;67.56;100151.46;101152;1318;140431;-77
2021/11/22 03:42:07;;;;;;;0.40;0.40;;;;;;;9.20;67.68;100156.03;101158;1322;110000;-76
2021/11/22 03:44:35;;;;;;;0.50;0.40;;;;;;;9.31;67.48;100156.48;101087;1318;138503;-76
2021/11/22 03:47:03;;;;;;;0.50;0.50;;;;;;;9.29;67.32;100157.58;101292;1318;95285;-75
2021/11/22 03:49:33;;;;;;;0.60;0.60;;;;;;;9.27;67.33;100162.08;100999;1321;139062;-77
2021/11/22 03:52:02;;;;;;;0.50;0.40;;;;;;;9.33;67.38;100168.48;101190;1315;110260;-77
2021/11/22 03:54:31;;;;;;;0.50;0.40;;;;;;;9.37;67.10;100169.27;101165;1318;95686;-77
2021/11/22 03:56:59;;;;;;;0.50;0.50;;;;;;;9.36;66.99;100172.48;101183;1318;138479;-76
2021/11/22 03:59:27;;;;;;;0.50;0.50;;;;;;;9.33;67.10;100174.49;101219;1319;107283;-76
2021/11/22 04:01:56;;;;;;;0.50;0.50;;;;;;;9.35;66.89;100176.41;101010;1318;138881;-77
2021/11/22 04:04:24;;;;;;;0.50;0.50;;;;;;;9.29;67.07;100174.79;101327;1319;95394;-76
2021/11/22 04:06:52;;;;;;;0.50;0.50;;;;;;;9.34;67.18;100177.48;101181;1318;95250;-77
2021/11/22 04:09:20;;;;;;;0.50;0.40;;;;;;;9.33;66.84;100177.34;101074;1319;139795;-77
2021/11/22 04:11:49;;;;;;;0.50;0.50;;;;;;;9.31;66.94;100179.35;101076;1318;107451;-75
2021/11/22 04:14:17;;;;;;;0.50;0.40;;;;;;;9.25;66.98;100180.74;101133;1318;139025;-76
2021/11/22 04:16:45;;;;;;;0.50;0.50;;;;;;;9.29;66.98;100187.54;101289;1318;95714;-77
2021/11/22 04:19:12;;;;;;;0.50;0.40;;;;;;;9.33;66.84;100190.10;101181;1318;107842;-76
2021/11/22 04:21:40;;;;;;;0.50;0.40;;;;;;;9.37;66.76;100191.06;101113;1318;139490;-75
2021/11/22 04:24:08;;;;;;;0.50;0.50;;;;;;;9.35;66.53;100191.98;101134;1322;95254;-76
2021/11/22 04:26:36;;;;;;;0.50;0.50;;;;;;;9.34;66.76;100194.49;101082;1318;138530;-77
2021/11/22 04:29:04;;;;;;;0.50;0.50;;;;;;;9.33;66.68;100201.80;101098;1321;108640;-75
2021/11/22 04:31:32;;;;;;;0.50;0.50;;;;;;;9.27;66.79;100202.30;101035;1318;141671;-77
2021/11/22 04:34:00;;;;;;;0.50;0.50;;;;;;;9.18;66.77;100200.90;101138;1318;97042;-77
2021/11/22 04:36:27;;;;;;;0.50;0.50;;;;;;;9.15;66.99;100207.00;101181;1318;95820;-76
2021/11/22 04:38:55;;;;;;;0.50;0.50;;;;;;;9.14;66.93;100210.20;100909;1318;138653;-77
2021/11/22 04:41:24;;;;;;;0.50;0.50;;;;;;;9.13;67.17;100220.34;101178;1319;109459;-77
2021/11/22 04:43:54;;;;;;;0.60;0.60;;;;;;;9.13;67.07;100223.69;101100;1320;139149;-77
2021/11/22 04:46:21;;;;;;;0.60;0.60;;;;;;;9.09;67.07;100226.64;101162;1318;95479;-77
2021/11/22 04:48:49;;;;;;;0.60;0.60;;;;;;;9.09;66.94;100231.04;101152;1318;108032;-76
2021/11/22 04:51:17;;;;;;;0.50;0.50;;;;;;;9.09;67.03;100227.16;101123;1318;138412;-77
2021/11/22 04:53:45;;;;;;;0.50;0.50;;;;;;;9.10;67.09;100229.25;101134;1321;95710;-76
2021/11/22 04:56:13;;;;;;;0.60;0.60;;;;;;;9.14;66.74;100236.25;101061;1318;139000;-76
2021/11/22 04:58:40;;;;;;;0.50;0.50;;;;;;;9.07;66.58;100235.88;100944;1318;109535;-76
2021/11/22 05:01:08;;;;;;;0.50;0.40;;;;;;;9.00;66.77;100235.84;101147;1319;108835;-76
2021/11/22 05:03:36;;;;;;;0.50;0.50;;;;;;;9.05;66.84;100239.65;101059;1321;139957;-76
2021/11/22 05:06:04;;;;;;;0.60;0.60;;;;;;;9.05;66.87;100242.13;101247;1318;95726;-77
2021/11/22 05:08:32;;;;;;;0.60;0.60;;;;;;;9.07;66.69;100239.23;101133;1318;137973;-76
2021/11/22 05:11:00;;;;;;;0.50;0.50;;;;;;;9.13;66.85;100241.60;101090;1318;108750;-76
2021/11/22 05:13:28;;;;;;;0.50;0.50;;;;;;;9.18;66.57;100249.44;101198;1318;139449;-75
2021/11/22 05:15:56;;;;;;;0.50;0.50;;;;;;;9.24;66.41;100251.61;101236;1318;95187;-76
2021/11/22 05:18:24;;;;;;;0.50;0.50;;;;;;;9.28;66.25;100255.95;100945;1320;107062;-77
2021/11/22 05:20:52;;;;;;;0.60;0.60;;;;;;;9.27;66.35;100262.17;101120;1319;138803;-76
2021/11/22 05:23:20;;;;;;;0.50;0.50;;;;;;;9.33;66.10;100266.27;101267;1318;95641;-76
2021/11/22 05:25:47;;;;;;;0.50;0.50;;;;;;;9.29;65.87;100268.50;101126;1318;142330;-76
2021/11/22 05:28:15;;;;;;;0.50;0.50;;;;;;;9.12;66.02;100269.59;101228;1318;109060;-77
2021/11/22 05:30:43;;;;;;;0.50;0.50;;;;;;;9.07;66.26;100274.84;101265;1318;110012;-77
2021/11/22 05:33:11;;;;;;;0.40;0.40;;;;;;;9.09;66.51;100275.52;101183;1318;140010;-76
2021/11/22 05:35:39;;;;;;;0.50;0.50;;;;;;;9.07;66.51;100275.91;101237;1318;95271;-76
2021/11/22 05:38:07;;;;;;;0.50;0.50;;;;;;;9.06;66.52;100278.95;101065;1317;138257;-76
2021/11/22 05:40:39;;;;;;;0.50;0.50;;;;;;;9.08;66.53;100277.14;101237;1319;107808;-77
2021/11/22 05:43:07;;;;;;;0.50;0.50;;;;;;;9.05;66.45;100285.69;101121;1319;96702;-76
2021/11/22 05:45:35;;;;;;;0.50;0.50;;;;;;;8.96;66.73;100288.71;101078;1321;138989;-77
2021/11/22 05:48:07;;;;;;;0.50;0.50;;;;;;;8.91;66.71;100291.31;101275;1318;107895;-78
2021/11/22 05:50:35;;;;;;;0.60;0.60;;;;;;;8.86;67.04;100295.81;101077;1318;139953;-76
2021/11/22 05:53:05;;;;;;;0.60;0.60;;;;;;;8.86;67.11;100299.91;101248;1319;95198;-76
2021/11/22 05:55:44;;;;;;;0.50;0.50;;;;;;;8.95;66.93;100301.12;101161;1318;138561;-76
2021/11/22 05:58:13;;;;;;;0.50;0.50;;;;;;;8.94;66.80;100302.91;101234;1318;108974;-75
2021/11/22 06:00:42;;;;;;;0.50;0.50;;;;;;;8.84;66.88;100308.08;101289;1318;109749;-76
2021/11/22 06:03:11;;;;;;;0.50;0.50;;;;;;;8.80;67.04;100309.77;101154;1318;137237;-77
2021/11/22 06:05:39;;;;;;;0.50;0.50;;;;;;;8.78;67.15;100315.13;101234;1319;95820;-76
2021/11/22 06:08:07;;;;;;;0.50;0.50;;;;;;;8.78;67.00;100313.34;101097;1318;138279;-77
2021/11/22 06:10:35;;;;;;;0.50;0.50;;;;;;;8.76;67.27;100312.68;101282;1318;109533;-77
2021/11/22 06:13:03;;;;;;;0.60;0.60;;;;;;;8.78;67.01;100313.34;101140;1318;95315;-77
2021/11/22 06:15:33;;;;;;;0.50;0.50;;;;;;;8.82;67.07;100318.77;100923;1321;138513;-77
2021/11/22 06:18:01;;;;;;;0.50;0.50;;;;;;;8.81;66.98;100321.06;101181;1318;109668;-77
2021/11/22 06:20:29;;;;;;;0.60;0.60;;;;;;;8.82;66.85;100328.13;101058;1318;138452;-77
2021/11/22 06:22:57;;;;;;;0.60;0.60;;;;;;;8.85;67.04;100331.25;101140;1318;95268;-77
2021/11/22 06:25:25;;;;;;;0.50;0.50;;;;;;;8.91;66.91;100338.23;101238;1318;95286;-75
2021/11/22 06:27:53;;;;;;;0.50;0.50;;;;;;;8.97;66.58;100342.00;101226;1313;138028;-77
2021/11/22 06:30:21;;;;;;;0.50;0.50;;;;;;;8.97;66.61;100346.09;101098;1321;109541;-77
2021/11/22 06:32:51;;;;;;;0.50;0.50;;;;;;;8.95;66.42;100351.06;101143;1318;137867;-77
2021/11/22 06:35:22;;;;;;;0.50;0.50;;;;;;;9.01;66.41;100352.52;101117;1318;97519;-77
2021/11/22 06:37:53;;;;;;;0.50;0.50;;;;;;;9.08;66.37;100353.27;101134;1318;139980;-76
2021/11/22 06:40:21;;;;;;;0.50;0.50;;;;;;;9.11;66.25;100354.80;101103;1320;109801;-76
2021/11/22 06:42:49;;;;;;;0.50;0.50;;;;;;;9.16;65.90;100355.95;101223;1318;98194;-77
2021/11/22 06:45:18;;;;;;;0.50;0.50;;;;;;;9.23;65.91;100360.22;101190;1318;139734;-76
2021/11/22 06:47:46;;;;;;;0.50;0.50;;;;;;;9.28;65.66;100363.50;101241;1318;108348;-76
2021/11/22 06:50:15;;;;;;;0.50;0.50;;;;;;;9.34;65.58;100364.59;101184;1321;140252;-77
2021/11/22 06:52:45;;;;;;;0.60;0.60;;;;;;;9.39;65.37;100368.02;101258;1318;95743;-77
2021/11/22 06:55:13;;;;;;;0.60;0.60;;;;;;;9.30;65.44;100368.22;101265;1318;95616;-77
2021/11/22 06:57:41;;;;;;;0.50;0.50;;;;;;;9.33;65.68;100368.34;101119;1319;139400;-77
2021/11/22 07:00:11;;;;;;;0.50;0.50;;;;;;;9.43;65.38;100368.31;100959;1321;109547;-77
2021/11/22 07:02:39;;;;;;;0.50;0.50;;;;;;;9.45;65.35;100371.98;101156;1318;140853;-76
2021/11/22 07:05:08;;;;;;;0.50;0.50;;;;;;;9.44;65.15;100370.58;101203;1319;95311;-77
2021/11/22 07:07:36;;;;;;;0.50;0.50;;;;;;;9.51;65.06;100385.85;101115;1318;138960;-76
2021/11/22 07:10:05;;;;;;;0.50;0.50;;;;;;;9.50;64.76;100387.82;101165;1319;110188;-75
2021/11/22 07:12:33;;;;;;;0.50;0.50;;;;;;;9.38;65.21;100389.85;101234;1318;96481;-77
2021/11/22 07:15:03;;;;;;;0.50;0.50;;;;;;;9.31;65.48;100392.12;100828;1321;137932;-77
2021/11/22 07:17:31;;;;;;;0.60;0.60;;;;;;;9.23;65.32;100396.89;101314;1318;109108;-76
2021/11/22 07:19:59;;;;;;;0.60;0.60;;;;;;;9.14;65.58;100399.56;101135;1318;138575;-77
2021/11/22 07:22:27;;;;;;;0.50;0.50;;;;;;;9.02;65.93;100404.94;101157;1321;95288;-77
2021/11/22 07:24:55;;;;;;;0.50;0.50;;;;;;;8.94;66.02;100403.34;101112;1321;95291;-76
2021/11/22 07:27:26;;;;;;;0.50;0.50;;;;;;;8.94;66.21;100405.63;101145;1318;139396;-77
2021/11/22 07:29:55;;;;;;;0.50;0.50;;;;;;;8.98;66.26;100406.25;101209;1318;109516;-76
2021/11/22 07:32:27;;;;;;;0.50;0.50;;;;;;;9.01;66.02;100408.51;101191;1318;137905;-78
2021/11/22 07:34:56;;;;;;;0.50;0.50;;;;;;;8.99;66.19;100412.25;101214;1318;95656;-78
2021/11/22 07:37:24;;;;;;;0.50;0.50;;;;;;;8.93;66.06;100414.14;101178;1318;109012;-77
2021/11/22 07:39:52;;;;;;;0.50;0.50;;;;;;;8.88;66.22;100412.28;101087;1321;139824;-77
2021/11/22 07:42:20;;;;;;;0.50;0.50;;;;;;;8.95;66.29;100418.19;100882;1323;95780;-77
2021/11/22 07:44:49;;;;;;;0.50;0.50;;;;;;;9.02;66.06;100418.03;101132;1318;138463;-77
2021/11/22 07:47:18;;;;;;;0.50;0.50;;;;;;;8.98;66.04;100425.04;101154;1320;108992;-77
2021/11/22 07:49:46;;;;;;;0.50;0.50;;;;;;;8.92;66.23;100427.10;101356;1318;138758;-76
2021/11/22 07:52:14;;;;;;;0.50;0.50;;;;;;;8.83;66.37;100431.33;101312;1318;95272;-76
2021/11/22 07:54:47;;;;;;;0.60;0.60;;;;;;;8.83;66.48;100436.27;101034;1318;95271;-77
2021/11/22 07:57:16;;;;;;;0.50;0.50;;;;;;;8.78;66.43;100440.98;101045;1321;138388;-77
2021/11/22 07:59:43;;;;;;;0.50;0.50;;;;;;;8.81;66.40;100444.29;101304;1318;110447;-77
2021/11/22 08:02:12;;;;;;;0.60;0.60;;;;;;;8.82;66.35;100445.52;101205;1318;138460;-77
2021/11/22 08:04:40;;;;;;;0.70;0.70;;;;;;;8.85;66.43;100447.93;101135;1318;206514;-77
2021/11/22 08:07:16;;;;;;;0.60;0.60;;;;;;;8.97;66.30;100452.66;101273;1318;109411;-76
2021/11/22 08:10:04;;;;;;;0.50;0.50;;;;;;;9.12;65.79;100461.42;101144;1315;139390;-77
2021/11/22 08:12:33;;;;;;;0.50;0.50;;;;;;;9.21;65.84;100469.77;101240;1318;95902;-77
2021/11/22 08:15:06;;;;;;;0.60;0.60;;;;;;;9.16;65.22;100470.39;101121;1318;137681;-77
2021/11/22 08:17:38;;;;;;;0.60;0.60;;;;;;;8.99;65.54;100471.58;100921;1321;107904;-77
2021/11/22 08:20:10;;;;;;;0.50;0.50;;;;;;;9.06;65.76;100477.30;100853;1321;140184;-77
2021/11/22 08:22:38;;;;;;;0.50;0.50;;;;;;;9.19;65.51;100486.61;101419;1318;96188;-76
2021/11/22 08:25:07;;;;;;;0.50;0.50;;;;;;;9.19;65.36;100487.85;101274;1318;95279;-78
2021/11/22 08:27:35;;;;;;;0.50;0.50;;;;;;;9.20;65.35;100490.50;101203;1318;138320;-77
2021/11/22 08:30:10;;;;;;;0.60;0.60;;;;;;;9.22;65.46;100490.46;101267;1318;108775;-76
2021/11/22 08:32:40;;;;;;;0.50;0.50;;;;;;;9.25;65.34;100493.06;101110;1322;139411;-76
2021/11/22 08:35:08;;;;;;;0.60;0.60;;;;;;;9.30;65.27;100492.43;101443;1318;95696;-75
2021/11/22 08:37:37;;;;;;;0.50;0.50;;;;;;;9.33;65.21;100492.54;100911;1318;137889;-76
2021/11/22 08:40:08;;;;;;;0.60;0.60;;;;;;;9.36;65.03;100493.38;101333;1318;109734;-77
2021/11/22 08:42:36;;;;;;;0.50;0.50;;;;;;;9.48;64.68;100494.56;101353;1318;95208;-77
2021/11/22 08:45:05;;;;;;;0.50;0.50;;;;;;;9.54;64.15;100495.85;100891;1321;138493;-76
2021/11/22 08:47:33;;;;;;;0.50;0.50;;;;;;;9.54;64.08;100498.52;101224;1320;109017;-77
2021/11/22 08:50:01;;;;;;;0.50;0.50;;;;;;;9.55;64.14;100499.72;101023;1321;138870;-77
2021/11/22 08:52:29;;;;;;;0.50;0.50;;;;;;;9.60;64.03;100501.94;101179;1321;95814;-76
2021/11/22 08:54:57;;;;;;;0.50;0.40;;;;;;;9.58;63.97;100503.23;101190;1320;95730;-77
2021/11/22 08:57:25;;;;;;;0.50;0.50;;;;;;;9.46;63.89;100505.40;101136;1318;139783;-77
2021/11/22 08:59:53;;;;;;;0.50;0.50;;;;;;;9.43;64.28;100507.41;101128;1318;108781;-77
2021/11/22 09:02:21;;;;;;;0.50;0.50;;;;;;;9.52;64.18;100507.23;101090;1318;140735;-77
2021/11/22 09:04:50;;;;;;;0.50;0.40;;;;;;;9.63;64.11;100512.88;101350;1318;95701;-77
2021/11/22 09:07:18;;;;;;;0.50;0.40;;;;;;;9.70;63.81;100513.24;101235;1318;108754;-77
2021/11/22 09:09:46;;;;;;;0.50;0.40;;;;;;;9.68;63.49;100517.89;101127;1318;140090;-79
2021/11/22 09:12:14;;;;;;;0.50;0.50;;;;;;;9.61;63.55;100518.94;100999;1320;95331;-77
2021/11/22 09:14:42;;;;;;;0.50;0.40;;;;;;;9.69;63.85;100517.00;101150;1318;138410;-77
2021/11/22 09:17:10;;;;;;;0.50;0.40;;;;;;;9.75;63.53;100523.77;101275;1318;105518;-77
2021/11/22 09:19:38;;;;;;;0.50;0.50;;;;;;;9.76;63.08;100523.06;101064;1319;138753;-77
2021/11/22 09:22:10;;;;;;;0.50;0.50;;;;;;;9.68;63.37;100527.48;101232;1318;95462;-77
2021/11/22 09:24:39;;;;;;;0.50;0.50;;;;;;;9.71;63.62;100525.46;101251;1318;95237;-76
2021/11/22 09:27:08;;;;;;;0.50;0.40;;;;;;;9.74;63.18;100528.05;101104;1321;138271;-76
2021/11/22 09:29:36;;;;;;;0.50;0.40;;;;;;;9.67;62.83;100527.65;101175;1318;108788;-77
2021/11/22 09:32:05;;;;;;;0.50;0.50;;;;;;;9.62;63.08;100529.73;101241;1318;138372;-76
2021/11/22 09:34:34;;;;;;;0.60;0.60;;;;;;;9.59;63.24;100528.91;101193;1321;95354;-76
2021/11/22 09:37:02;;;;;;;0.50;0.40;;;;;;;9.61;63.13;100530.98;101286;1318;108866;-77
2021/11/22 09:39:30;;;;;;;0.40;0.40;;;;;;;9.65;63.02;100530.91;101030;1321;139750;-76
2021/11/22 09:42:04;;;;;;;0.50;0.40;;;;;;;9.58;63.04;100530.52;101274;1318;95268;-77
2021/11/22 09:44:32;;;;;;;0.50;0.50;;;;;;;9.55;63.30;100531.27;101172;1316;137907;-76
2021/11/22 09:47:01;;;;;;;0.50;0.50;;;;;;;9.49;63.13;100538.30;101373;1318;108874;-76
2021/11/22 09:49:29;;;;;;;0.40;0.40;;;;;;;9.50;63.62;100538.46;102002;1318;109775;-76
2021/11/22 09:51:58;;;;;;;0.50;0.50;;;;;;;9.55;63.14;100546.00;101282;1318;141018;-76
2021/11/22 09:54:25;;;;;;;0.50;0.50;;;;;;;9.47;63.29;100543.66;101237;1318;96698;-76
2021/11/22 09:56:54;;;;;;;0.60;0.60;;;;;;;9.44;63.58;100544.08;101101;1318;140191;-76
2021/11/22 09:59:22;;;;;;;0.50;0.50;;;;;;;9.45;63.54;100545.84;101199;1318;108576;-77
2021/11/22 10:01:54;;;;;;;0.50;0.50;;;;;;;9.43;63.18;100549.95;101204;1318;139483;-77
2021/11/22 10:04:31;;;;;;;0.50;0.50;;;;;;;9.32;63.05;100548.74;101082;1317;96915;-78
2021/11/22 10:07:02;;;;;;;0.60;0.60;;;;;;;9.19;63.62;100546.48;101391;1318;109272;-76
2021/11/22 10:09:34;;;;;;;0.50;0.50;;;;;;;9.16;63.63;100547.42;101396;1318;139431;-76
2021/11/22 10:12:28;;;;;;;0.50;0.50;;;;;;;9.18;63.95;100548.29;101822;1318;95648;-77
2021/11/22 10:14:59;;;;;;;0.60;0.60;;;;;;;9.12;64.24;100551.92;101301;1315;138016;-77
2021/11/22 10:17:39;;;;;;;0.50;0.50;;;;;;;9.15;64.34;100558.45;101275;1318;108696;-77
2021/11/22 10:20:07;;;;;;;0.50;0.50;;;;;;;9.18;64.25;100557.66;101208;1318;138892;-76
2021/11/22 10:23:07;;;;;;;0.50;0.50;;;;;;;9.20;64.44;100557.81;101540;1315;95649;-77
2021/11/22 10:25:37;;;;;;;0.50;0.50;;;;;;;9.26;64.14;100556.10;102138;1318;95813;-77
2021/11/22 10:28:16;;;;;;;0.50;0.50;;;;;;;9.27;64.40;100560.00;100976;1321;138180;-77
2021/11/22 10:30:49;;;;;;;0.50;0.50;;;;;;;9.37;64.20;100562.82;101169;1318;108173;-76
2021/11/22 10:33:22;;;;;;;0.50;0.50;;;;;;;9.42;63.80;100561.31;101296;1318;139110;-76
2021/11/22 10:35:53;;;;;;;0.50;0.40;;;;;;;9.39;63.63;100563.31;101320;1318;95967;-76
2021/11/22 10:38:24;;;;;;;0.50;0.50;;;;;;;9.36;63.78;100564.61;101039;1318;139865;-78
2021/11/22 10:41:22;;;;;;;0.50;0.40;;;;;;;9.40;63.40;100564.00;101151;1321;109788;-77
2021/11/22 10:44:05;;;;;;;0.50;0.40;;;;;;;9.39;63.27;100564.73;101228;1321;138853;-77
2021/11/22 10:46:45;;;;;;;0.50;0.40;;;;;;;9.36;63.52;100566.91;101307;1321;95666;-75
2021/11/22 10:49:39;;;;;;;0.50;0.50;;;;;;;9.33;63.48;100571.77;101178;1321;108861;-77
2021/11/22 10:52:35;;;;;;;0.50;0.50;;;;;;;9.34;63.26;100575.45;101219;1318;139979;-76
2021/11/22 10:55:11;;;;;;;0.50;0.50;;;;;;;9.32;63.12;100581.88;101186;1321;95242;-77
2021/11/22 10:57:42;;;;;;;0.50;0.50;;;;;;;9.25;63.06;100583.95;101237;1319;138060;-76
2021/11/22 11:00:27;;;;;;;0.50;0.50;;;;;;;9.25;63.02;100589.09;101243;1318;107980;-77
2021/11/22 11:02:57;;;;;;;0.50;0.50;;;;;;;9.27;62.60;100588.70;101072;1318;139620;-77
2021/11/22 11:05:34;;;;;;;0.50;0.50;;;;;;;9.24;62.72;100592.81;101211;1318;95373;-76
2021/11/22 11:08:03;;;;;;;0.50;0.50;;;;;;;9.19;62.38;100595.39;101213;1318;138600;-77
2021/11/22 11:10:32;;;;;;;0.50;0.50;;;;;;;9.08;62.67;100596.63;101346;1318;107959;-77
2021/11/22 11:13:02;;;;;;;0.50;0.50;;;;;;;9.04;62.94;100597.95;101348;1321;109926;-77
2021/11/22 11:15:31;;;;;;;0.50;0.50;;;;;;;9.12;62.98;100599.77;101340;1318;140163;-77
2021/11/22 11:18:00;;;;;;;0.50;0.50;;;;;;;9.21;62.80;100601.91;101226;1318;95966;-76
2021/11/22 11:20:29;;;;;;;0.50;0.50;;;;;;;9.29;62.35;100603.91;101161;1318;139400;-76
2021/11/22 11:22:58;;;;;;;0.50;0.50;;;;;;;9.30;62.55;100603.70;101298;1318;109899;-77
2021/11/22 11:25:28;;;;;;;0.50;0.50;;;;;;;9.37;62.37;100605.70;101192;1318;97002;-77
2021/11/22 11:28:16;;;;;;;0.50;0.50;;;;;;;9.38;61.67;100602.14;101144;1316;138725;-75
2021/11/22 11:30:44;;;;;;;0.50;0.50;;;;;;;9.32;61.32;100600.64;101291;1318;108864;-77